createdAt,value
2019-05-03T00:11:52.705Z,25.40
2019-05-03T00:14:14.182Z,28.57
2019-05-03T00:16:47.824Z,26.57
2019-05-03T00:19:09.103Z,25.57
2019-05-03T00:21:30.329Z,26.33
2019-05-03T00:23:52.306Z,27.47
2019-05-03T00:26:13.645Z,27.10
2019-05-03T00:28:34.855Z,25.70
2019-05-03T00:30:56.464Z,27.63
2019-05-03T00:33:17.645Z,27.67
2019-05-03T00:35:42.421Z,29.37
2019-05-03T00:38:05.948Z,29.03
2019-05-03T00:40:28.250Z,27.27
2019-05-03T00:42:49.437Z,26.20
2019-05-03T00:45:12.523Z,27.40
2019-05-03T00:47:34.014Z,30.57
2019-05-03T00:49:55.424Z,29.77
2019-05-03T00:52:16.720Z,30.20
2019-05-03T00:54:37.957Z,28.13
2019-05-03T00:56:59.352Z,28.83
2019-05-03T00:59:22.154Z,29.27
2019-05-03T01:01:43.661Z,29.60
2019-05-03T01:04:04.847Z,30.13
2019-05-03T01:06:26.164Z,28.97
2019-05-03T01:08:47.345Z,29.23
2019-05-03T01:11:08.929Z,30.83
2019-05-03T01:13:31.921Z,29.40
2019-05-03T01:15:55.203Z,30.90
2019-05-03T01:18:18.288Z,31.70
2019-05-03T01:20:39.824Z,30.53
2019-05-03T01:23:02.088Z,31.77
2019-05-03T01:25:32.421Z,31.43
2019-05-03T01:27:46.588Z,31.50
2019-05-03T01:30:08.173Z,32.33
2019-05-03T01:32:29.381Z,30.97
2019-05-03T01:34:52.353Z,26.40
2019-05-03T01:37:13.673Z,30.83
2019-05-03T01:39:34.863Z,29.97
2019-05-03T01:41:56.056Z,31.83
2019-05-03T01:44:17.266Z,30.13
2019-05-03T01:46:38.471Z,33.83
2019-05-03T01:49:16.597Z,31.33
2019-05-03T01:51:39.761Z,31.37
2019-05-03T01:54:01.684Z,30.07
2019-05-03T01:56:23.367Z,31.33
2019-05-03T01:58:44.548Z,32.70
2019-05-03T02:01:13.195Z,32.07
2019-05-03T02:03:42.229Z,31.80
2019-05-03T02:06:03.613Z,32.30
2019-05-03T02:08:25.106Z,32.10
2019-05-03T02:10:46.850Z,31.83
2019-05-03T02:13:08.857Z,32.27
2019-05-03T02:15:30.032Z,32.57
2019-05-03T02:17:52.057Z,32.10
2019-05-03T02:20:13.641Z,32.33
2019-05-03T02:22:34.850Z,32.47
2019-05-03T02:24:56.034Z,30.53
2019-05-03T02:27:17.252Z,32.73
2019-05-03T02:29:38.536Z,30.60
2019-05-03T02:31:59.746Z,31.10
2019-05-03T02:34:23.690Z,30.17
2019-05-03T02:36:44.016Z,29.73
2019-05-03T02:39:09.424Z,32.63
2019-05-03T02:41:30.614Z,31.90
2019-05-03T02:43:56.502Z,31.07
2019-05-03T02:46:19.573Z,30.63
2019-05-03T02:48:45.543Z,34.33
2019-05-03T02:51:08.741Z,31.13
2019-05-03T02:53:30.053Z,30.83
2019-05-03T02:55:51.362Z,33.13
2019-05-03T02:58:15.713Z,31.47
2019-05-03T03:00:55.870Z,29.63
2019-05-03T03:03:16.586Z,32.80
2019-05-03T03:05:38.569Z,32.27
2019-05-03T03:08:02.070Z,31.40
2019-05-03T03:10:26.453Z,34.47
2019-05-03T03:12:50.895Z,33.90
2019-05-03T03:15:12.096Z,33.57
2019-05-03T03:17:36.162Z,31.03
2019-05-03T03:19:57.888Z,33.90
2019-05-03T03:22:21.565Z,33.13
2019-05-03T03:24:46.669Z,32.57
2019-05-03T03:27:11.725Z,33.77
2019-05-03T03:29:35.942Z,33.57
2019-05-03T03:32:09.055Z,35.83
2019-05-03T03:34:38.547Z,35.30
2019-05-03T03:37:05.185Z,35.83
2019-05-03T03:39:25.714Z,32.17
2019-05-03T03:41:46.224Z,32.47
2019-05-03T03:44:09.330Z,34.63
2019-05-03T03:46:32.229Z,33.67
2019-05-03T03:48:55.931Z,35.00
2019-05-03T03:51:18.922Z,33.47
2019-05-03T03:53:46.321Z,34.80
2019-05-03T03:56:10.331Z,34.57
2019-05-03T03:58:31.847Z,36.90
2019-05-03T04:00:55.498Z,32.90
2019-05-03T04:03:18.238Z,38.13
2019-05-03T04:05:40.450Z,34.47
2019-05-03T04:08:05.413Z,37.40
2019-05-03T04:10:27.549Z,37.80
2019-05-03T04:12:49.933Z,39.47
2019-05-03T04:15:22.255Z,38.57
2019-05-03T04:18:00.465Z,36.90
2019-05-03T04:20:25.735Z,40.93
2019-05-03T04:22:47.162Z,37.73
2019-05-03T04:25:08.461Z,36.00
2019-05-03T04:27:30.066Z,37.17
2019-05-03T04:29:55.687Z,37.73
2019-05-03T04:32:16.756Z,37.63
2019-05-03T04:34:38.222Z,39.70
2019-05-03T04:37:00.505Z,37.23
2019-05-03T04:39:21.708Z,37.17
2019-05-03T04:41:45.215Z,37.67
2019-05-03T04:44:06.503Z,38.97
2019-05-03T04:46:28.158Z,37.67
2019-05-03T04:48:49.516Z,62.13
2019-05-03T04:51:10.792Z,18.40
2019-05-03T04:53:35.785Z,18.97
2019-05-03T04:55:56.981Z,51.90
2019-05-03T04:58:18.204Z,16.53
2019-05-03T05:00:40.675Z,17.47
2019-05-03T05:03:01.868Z,16.73
2019-05-03T05:05:26.206Z,14.93
2019-05-03T05:07:47.262Z,17.97
2019-05-03T05:10:08.767Z,17.00
2019-05-03T05:12:29.972Z,17.03
2019-05-03T05:14:51.201Z,16.77
2019-05-03T05:17:16.324Z,17.23
2019-05-03T05:19:39.581Z,19.20
2019-05-03T05:22:05.335Z,16.00
2019-05-03T05:24:25.870Z,15.90
2019-05-03T05:26:48.985Z,19.70
2019-05-03T05:29:28.701Z,14.97
2019-05-03T05:31:50.513Z,17.07
2019-05-03T05:34:11.706Z,25.50
2019-05-03T05:36:34.630Z,21.23
2019-05-03T05:38:56.008Z,15.20
2019-05-03T05:41:17.201Z,15.27
2019-05-03T05:43:38.396Z,14.53
2019-05-03T05:46:00.088Z,15.47
2019-05-03T05:48:24.630Z,15.47
2019-05-03T05:50:46.038Z,14.90
2019-05-03T05:53:07.509Z,13.60
2019-05-03T05:55:34.443Z,14.20
2019-05-03T05:58:04.717Z,13.43
2019-05-03T06:00:40.970Z,12.63
2019-05-03T06:03:02.280Z,10.27
2019-05-03T06:05:25.275Z,10.77
2019-05-03T06:07:51.309Z,10.60
2019-05-03T06:10:16.539Z,9.80
2019-05-03T06:12:39.514Z,10.23
2019-05-03T06:15:04.631Z,13.63
2019-05-03T06:17:27.740Z,11.47
2019-05-03T06:19:50.838Z,14.03
2019-05-03T06:22:19.958Z,12.73
2019-05-03T06:24:45.139Z,13.63
2019-05-03T06:27:24.591Z,11.20
2019-05-03T06:29:47.494Z,11.50
2019-05-03T06:32:10.604Z,11.60
2019-05-03T06:34:32.062Z,13.03
2019-05-03T06:36:55.324Z,12.83
2019-05-03T06:39:17.158Z,12.43
2019-05-03T06:41:38.356Z,10.27
2019-05-03T06:43:59.557Z,9.60
2019-05-03T06:46:23.536Z,9.97
2019-05-03T06:48:45.820Z,10.57
2019-05-03T06:51:10.979Z,10.53
2019-05-03T06:53:30.161Z,11.17
2019-05-03T06:55:51.358Z,10.00
2019-05-03T06:58:12.937Z,10.53
2019-05-03T07:00:51.232Z,8.60
2019-05-03T07:03:35.418Z,8.60
2019-05-03T07:06:15.756Z,8.20
2019-05-03T07:08:51.781Z,7.67
2019-05-03T07:11:12.966Z,7.73
2019-05-03T07:13:34.654Z,7.53
2019-05-03T07:15:56.112Z,7.50
2019-05-03T07:18:17.386Z,8.13
2019-05-03T07:23:27.035Z,9.23
2019-05-03T07:25:48.529Z,7.57
2019-05-03T07:28:10.879Z,7.23
2019-05-03T07:30:34.599Z,7.30
2019-05-03T07:32:57.265Z,7.60
2019-05-03T07:35:18.538Z,7.33
2019-05-03T07:37:39.809Z,7.27
2019-05-03T07:40:00.999Z,7.07
2019-05-03T07:42:22.177Z,7.00
2019-05-03T07:44:44.977Z,7.70
2019-05-03T07:47:06.369Z,7.63
2019-05-03T07:49:27.577Z,6.90
2019-05-03T07:51:48.768Z,6.80
2019-05-03T07:54:10.034Z,6.93
2019-05-03T07:56:33.146Z,6.83
2019-05-03T07:59:02.882Z,7.47
2019-05-03T08:01:25.005Z,7.33
2019-05-03T08:03:45.886Z,6.73
2019-05-03T08:06:07.389Z,6.17
2019-05-03T08:08:28.853Z,7.27
2019-05-03T08:10:50.159Z,7.20
2019-05-03T08:13:11.448Z,6.83
2019-05-03T08:15:34.688Z,6.73
2019-05-03T08:17:56.057Z,7.47
2019-05-03T08:20:17.291Z,7.30
2019-05-03T08:22:38.532Z,7.47
2019-05-03T08:24:59.804Z,6.60
2019-05-03T08:27:21.019Z,7.00
2019-05-03T08:29:42.273Z,7.40
2019-05-03T08:32:21.907Z,7.97
2019-05-03T08:34:45.334Z,7.03
2019-05-03T08:37:09.044Z,6.43
2019-05-03T08:39:30.694Z,7.17
2019-05-03T08:41:56.939Z,8.10
2019-05-03T08:44:18.447Z,6.80
2019-05-03T08:46:39.735Z,7.00
2019-05-03T08:49:01.007Z,6.60
2019-05-03T08:51:22.451Z,6.77
2019-05-03T08:53:45.920Z,6.73
2019-05-03T08:56:06.813Z,6.73
2019-05-03T08:58:28.028Z,5.50
2019-05-03T09:00:49.229Z,5.97
2019-05-03T09:03:10.558Z,6.63
2019-05-03T09:05:31.778Z,5.43
2019-05-03T09:07:54.757Z,7.37
2019-05-03T09:13:14.776Z,5.60
2019-05-03T09:15:38.440Z,4.80
2019-05-03T09:18:01.046Z,7.33
2019-05-03T09:20:22.427Z,5.93
2019-05-03T09:22:45.350Z,6.20
2019-05-03T09:25:06.981Z,6.40
2019-05-03T09:27:28.173Z,6.70
2019-05-03T09:29:49.376Z,6.40
2019-05-03T09:32:10.583Z,6.10
2019-05-03T09:34:31.795Z,6.67
2019-05-03T09:36:55.135Z,5.93
2019-05-03T09:39:16.143Z,5.60
2019-05-03T09:41:37.345Z,5.07
2019-05-03T09:43:58.552Z,5.30
2019-05-03T09:46:19.815Z,5.73
2019-05-03T09:48:41.259Z,5.43
2019-05-03T09:51:02.567Z,5.50
2019-05-03T09:53:25.730Z,5.40
2019-05-03T09:55:46.951Z,6.33
2019-05-03T09:58:08.153Z,6.50
2019-05-03T10:00:29.590Z,6.77
2019-05-03T10:02:50.940Z,6.63
2019-05-03T10:05:15.596Z,6.63
2019-05-03T10:07:36.993Z,5.67
2019-05-03T10:09:58.625Z,6.03
2019-05-03T10:12:21.751Z,6.80
2019-05-03T10:14:45.117Z,6.07
2019-05-03T10:19:48.868Z,5.53
2019-05-03T10:22:12.474Z,7.33
2019-05-03T10:24:35.159Z,6.20
2019-05-03T10:26:56.689Z,6.07
2019-05-03T10:29:17.877Z,5.20
2019-05-03T10:31:46.693Z,5.83
2019-05-03T10:34:07.915Z,4.70
2019-05-03T10:36:29.231Z,5.37
2019-05-03T10:38:50.401Z,6.17
2019-05-03T10:41:12.919Z,5.73
2019-05-03T10:43:35.509Z,6.60
2019-05-03T10:45:56.940Z,6.47
2019-05-03T10:48:18.155Z,5.73
2019-05-03T10:50:40.288Z,5.67
2019-05-03T10:53:06.430Z,6.33
2019-05-03T10:55:27.734Z,5.70
2019-05-03T10:58:07.451Z,5.10
2019-05-03T11:00:50.274Z,6.23
2019-05-03T11:02:55.065Z,5.40
2019-05-03T11:05:16.517Z,4.83
2019-05-03T11:07:38.027Z,5.30
2019-05-03T11:09:59.214Z,5.10
2019-05-03T11:12:42.614Z,4.03
2019-05-03T11:15:05.608Z,3.40
2019-05-03T11:17:26.831Z,3.50
2019-05-03T11:19:48.535Z,3.70
2019-05-03T11:22:10.243Z,4.37
2019-05-03T11:24:31.848Z,3.97
2019-05-03T11:26:55.795Z,3.87
2019-05-03T11:29:17.447Z,3.13
2019-05-03T11:31:49.627Z,3.30
2019-05-03T11:34:15.020Z,3.40
2019-05-03T11:36:37.713Z,3.73
2019-05-03T11:38:58.909Z,5.50
2019-05-03T11:41:30.290Z,3.50
2019-05-03T11:43:44.364Z,3.20
2019-05-03T11:46:05.919Z,5.50
2019-05-03T11:48:27.128Z,4.33
2019-05-03T11:50:48.405Z,4.10
2019-05-03T11:53:09.609Z,4.77
2019-05-03T11:55:30.821Z,3.87
2019-05-03T11:57:52.061Z,3.80
2019-05-03T12:00:15.807Z,4.57
2019-05-03T12:02:39.121Z,3.80
2019-05-03T12:05:18.792Z,5.00
2019-05-03T12:07:40.309Z,3.90
2019-05-03T12:10:02.588Z,3.90
2019-05-03T12:12:29.452Z,4.67
2019-05-03T12:14:50.928Z,3.30
2019-05-03T12:17:22.466Z,4.27
2019-05-03T12:19:38.295Z,3.63
2019-05-03T12:22:00.811Z,4.40
2019-05-03T12:24:22.762Z,3.93
2019-05-03T12:26:46.920Z,3.20
2019-05-03T12:29:07.506Z,4.47
2019-05-03T12:31:36.988Z,4.67
2019-05-03T12:33:51.825Z,4.50
2019-05-03T12:36:15.259Z,3.10
2019-05-03T12:38:36.289Z,3.37
2019-05-03T12:40:57.481Z,3.20
2019-05-03T12:43:18.726Z,4.00
2019-05-03T12:45:40.182Z,3.67
2019-05-03T12:48:01.519Z,3.70
2019-05-03T12:50:25.027Z,3.53
2019-05-03T12:52:50.357Z,3.90
2019-05-03T12:55:09.041Z,2.80
2019-05-03T12:57:30.218Z,3.63
2019-05-03T13:00:08.407Z,3.30
2019-05-03T13:02:34.718Z,3.47
2019-05-03T13:04:56.019Z,3.60
2019-05-03T13:07:24.947Z,3.90
2019-05-03T13:09:46.469Z,3.90
2019-05-03T13:12:09.554Z,4.60
2019-05-03T13:14:30.782Z,7.27
2019-05-03T13:16:51.972Z,10.73
2019-05-03T13:19:15.111Z,9.10
2019-05-03T13:21:36.294Z,7.17
2019-05-03T13:23:57.799Z,8.50
2019-05-03T13:26:18.998Z,17.60
2019-05-03T13:28:40.188Z,7.87
2019-05-03T13:31:01.380Z,5.40
2019-05-03T13:33:22.576Z,8.53
2019-05-03T13:35:44.692Z,4.90
2019-05-03T13:38:05.991Z,3.10
2019-05-03T13:40:27.188Z,3.47
2019-05-03T13:42:57.763Z,4.17
2019-05-03T13:45:11.869Z,4.07
2019-05-03T13:47:34.920Z,3.40
2019-05-03T13:49:56.329Z,4.20
2019-05-03T13:52:17.516Z,3.30
2019-05-03T13:54:38.722Z,3.20
2019-05-03T13:56:59.908Z,3.10
2019-05-03T13:59:22.126Z,2.77
2019-05-03T14:01:45.064Z,3.17
2019-05-03T14:04:06.553Z,2.60
2019-05-03T14:06:27.796Z,2.80
2019-05-03T14:08:49.061Z,2.20
2019-05-03T14:11:10.361Z,2.30
2019-05-03T14:13:32.253Z,1.97
2019-05-03T14:15:54.806Z,2.33
2019-05-03T14:18:16.352Z,2.20
2019-05-03T14:20:55.858Z,2.47
2019-05-03T14:23:17.070Z,2.87
2019-05-03T14:25:38.264Z,3.57
2019-05-03T14:27:59.745Z,2.23
2019-05-03T14:30:21.465Z,3.90
2019-05-03T14:32:45.122Z,4.60
2019-05-03T14:35:06.488Z,3.30
2019-05-03T14:37:28.006Z,3.10
2019-05-03T14:39:49.258Z,6.33
2019-05-03T14:42:10.459Z,4.10
2019-05-03T14:44:31.640Z,2.80
2019-05-03T14:46:56.609Z,2.50
2019-05-03T14:49:16.706Z,2.43
2019-05-03T14:51:37.948Z,2.70
2019-05-03T14:53:59.837Z,2.20
2019-05-03T14:56:28.742Z,2.43
2019-05-03T14:58:52.064Z,2.17
2019-05-03T15:01:15.530Z,2.40
2019-05-03T15:03:36.992Z,2.00
2019-05-03T15:05:58.622Z,1.90
2019-05-03T15:08:21.281Z,1.90
2019-05-03T15:10:42.600Z,2.37
2019-05-03T15:13:05.273Z,2.77
2019-05-03T15:15:28.844Z,2.40
2019-05-03T15:17:49.953Z,2.40
2019-05-03T15:20:11.650Z,2.43
2019-05-03T15:22:34.607Z,2.83
2019-05-03T15:24:56.137Z,2.83
2019-05-03T15:27:17.362Z,2.90
2019-05-03T15:29:38.604Z,1.90
2019-05-03T15:32:00.002Z,2.40
2019-05-03T15:34:44.536Z,3.40
2019-05-03T15:37:05.918Z,2.20
2019-05-03T15:39:27.210Z,2.40
2019-05-03T15:41:48.545Z,2.40
2019-05-03T15:44:26.739Z,2.30
2019-05-03T15:46:49.918Z,2.60
2019-05-03T15:49:11.184Z,2.53
2019-05-03T15:51:32.394Z,4.00
2019-05-03T15:53:55.105Z,5.37
2019-05-03T15:56:16.618Z,4.20
2019-05-03T15:58:37.913Z,3.90
2019-05-03T16:00:59.139Z,5.53
2019-05-03T16:03:20.340Z,4.53
2019-05-03T16:05:41.542Z,3.10
2019-05-03T16:08:04.557Z,3.13
2019-05-03T16:10:26.109Z,2.90
2019-05-03T16:12:47.343Z,2.20
2019-05-03T16:15:08.644Z,2.27
2019-05-03T16:17:30.077Z,2.30
2019-05-03T16:19:51.391Z,2.13
2019-05-03T16:22:14.332Z,2.37
2019-05-03T16:24:35.691Z,2.20
2019-05-03T16:27:05.068Z,2.27
2019-05-03T16:29:26.564Z,2.30
2019-05-03T16:31:47.774Z,2.87
2019-05-03T16:34:09.014Z,2.50
2019-05-03T16:36:30.217Z,3.13
2019-05-03T16:38:51.396Z,3.43
2019-05-03T16:41:17.489Z,2.80
2019-05-03T16:43:36.324Z,3.47
2019-05-03T16:45:57.591Z,3.23
2019-05-03T16:48:18.872Z,3.47
2019-05-03T16:50:40.403Z,4.67
2019-05-03T16:53:02.557Z,4.00
2019-05-03T16:55:25.676Z,3.80
2019-05-03T16:57:46.915Z,3.87
2019-05-03T17:00:08.714Z,5.43
2019-05-03T17:02:30.048Z,4.70
2019-05-03T17:05:25.254Z,6.13
2019-05-03T17:10:58.703Z,3.27
2019-05-03T17:13:20.002Z,2.53
2019-05-03T17:15:42.281Z,2.43
2019-05-03T17:18:03.512Z,2.33
2019-05-03T17:20:25.391Z,2.27
2019-05-03T17:22:47.320Z,2.60
2019-05-03T17:25:09.809Z,4.57
2019-05-03T17:27:31.118Z,2.90
2019-05-03T17:29:52.401Z,2.77
2019-05-03T17:32:15.343Z,2.50
2019-05-03T17:34:36.923Z,2.40
2019-05-03T17:36:58.214Z,3.30
2019-05-03T17:39:27.246Z,2.80
2019-05-03T17:42:02.642Z,2.97
2019-05-03T17:44:31.388Z,2.30
2019-05-03T17:46:54.821Z,2.00
2019-05-03T17:49:17.261Z,2.13
2019-05-03T17:51:40.361Z,2.17
2019-05-03T17:54:05.131Z,2.20
2019-05-03T17:56:31.280Z,1.93
2019-05-03T17:58:55.189Z,2.70
2019-05-03T18:01:21.227Z,2.03
2019-05-03T18:03:44.907Z,2.00
2019-05-03T18:06:20.205Z,1.90
2019-05-03T18:08:52.536Z,2.97
2019-05-03T18:11:15.633Z,3.00
2019-05-03T18:13:36.829Z,2.50
2019-05-03T18:15:58.024Z,2.00
2019-05-03T18:18:19.584Z,2.23
2019-05-03T18:20:41.104Z,2.23
2019-05-03T18:23:04.981Z,3.37
2019-05-03T18:25:26.333Z,2.53
2019-05-03T18:27:47.727Z,2.40
2019-05-03T18:30:13.029Z,2.20
2019-05-03T18:32:34.490Z,2.50
2019-05-03T18:35:16.016Z,2.83
2019-05-03T18:37:37.312Z,2.40
2019-05-03T18:39:59.280Z,2.50
2019-05-03T18:42:40.761Z,3.20
2019-05-03T18:45:22.552Z,4.23
2019-05-03T18:47:45.005Z,4.23
2019-05-03T18:50:27.117Z,5.37
2019-05-03T18:55:37.264Z,4.13
2019-05-03T18:58:00.617Z,3.63
2019-05-03T19:00:24.689Z,3.20
2019-05-03T19:02:47.863Z,5.67
2019-05-03T19:05:10.595Z,3.87
2019-05-03T19:07:37.391Z,4.57
2019-05-03T19:13:22.600Z,6.73
2019-05-03T19:15:44.997Z,4.63
2019-05-03T19:18:10.167Z,4.57
2019-05-03T19:20:46.632Z,4.60
2019-05-03T19:23:09.479Z,4.43
2019-05-03T19:25:49.158Z,4.20
2019-05-03T19:28:16.717Z,4.97
2019-05-03T19:30:41.822Z,4.10
2019-05-03T19:33:06.391Z,3.73
2019-05-03T19:35:29.449Z,5.20
2019-05-03T19:37:51.564Z,3.93
2019-05-03T19:40:27.561Z,5.47
2019-05-03T19:42:49.554Z,3.83
2019-05-03T19:45:11.238Z,3.50
2019-05-03T19:47:35.344Z,3.97
2019-05-03T19:50:06.136Z,4.07
2019-05-03T19:52:46.465Z,4.50
2019-05-03T19:55:22.344Z,4.00
2019-05-03T19:57:44.963Z,4.60
2019-05-03T20:00:08.792Z,3.90
2019-05-03T20:02:38.975Z,3.60
2019-05-03T20:05:05.791Z,3.83
2019-05-03T20:07:30.133Z,3.83
2019-05-03T20:09:51.788Z,4.70
2019-05-03T20:12:15.227Z,3.03
2019-05-03T20:14:37.078Z,4.03
2019-05-03T20:16:58.948Z,3.30
2019-05-03T20:19:21.370Z,4.50
2019-05-03T20:21:43.041Z,5.80
2019-05-03T20:24:05.561Z,3.73
2019-05-03T20:26:28.500Z,3.70
2019-05-03T20:28:50.798Z,5.20
2019-05-03T20:31:13.201Z,5.83
2019-05-03T20:33:35.260Z,4.87
2019-05-03T20:35:58.838Z,4.30
2019-05-03T20:38:31.457Z,3.90
2019-05-03T20:41:02.702Z,3.67
2019-05-03T20:43:44.990Z,4.20
2019-05-03T20:46:25.458Z,4.00
2019-05-03T20:48:35.725Z,4.60
2019-05-03T20:50:56.962Z,4.23
2019-05-03T20:53:18.959Z,4.10
2019-05-03T20:55:41.088Z,5.60
2019-05-03T20:58:05.190Z,4.03
2019-05-03T21:00:29.228Z,4.70
2019-05-03T21:02:54.748Z,5.37
2019-05-03T21:05:26.890Z,4.83
2019-05-03T21:07:39.308Z,4.17
2019-05-03T21:10:21.773Z,4.13
2019-05-03T21:12:43.672Z,4.27
2019-05-03T21:18:12.522Z,4.40
2019-05-03T21:20:36.377Z,4.53
2019-05-03T21:22:58.885Z,5.40
2019-05-03T21:25:22.004Z,5.13
2019-05-03T21:27:44.835Z,5.87
2019-05-03T21:30:06.861Z,5.23
2019-05-03T21:32:28.124Z,4.93
2019-05-03T21:34:49.325Z,5.20
2019-05-03T21:37:11.646Z,4.80
2019-05-03T21:39:34.728Z,4.50
2019-05-03T21:41:55.933Z,5.47
2019-05-03T21:44:28.074Z,4.73
2019-05-03T21:46:49.775Z,4.87
2019-05-03T21:49:14.792Z,4.20
2019-05-03T21:51:36.000Z,5.03
2019-05-03T21:53:57.199Z,3.80
2019-05-03T21:56:18.404Z,5.00
2019-05-03T21:58:39.621Z,5.30
2019-05-03T22:01:04.926Z,4.50
2019-05-03T22:03:28.102Z,4.60
2019-05-03T22:05:55.064Z,6.00
2019-05-03T22:08:12.406Z,5.17
2019-05-03T22:10:34.632Z,4.97
2019-05-03T22:12:56.017Z,4.60
2019-05-03T22:15:36.366Z,4.40
2019-05-03T22:17:59.519Z,4.30
2019-05-03T22:20:24.562Z,4.40
2019-05-03T22:22:47.609Z,4.00
2019-05-03T22:25:10.905Z,5.10
2019-05-03T22:27:43.074Z,5.70
2019-05-03T22:30:06.176Z,4.73
2019-05-03T22:32:27.478Z,4.67
2019-05-03T22:34:48.677Z,5.67
2019-05-03T22:37:09.880Z,4.30
2019-05-03T22:39:31.061Z,5.13
2019-05-03T22:41:52.565Z,4.17
2019-05-03T22:44:16.734Z,4.20
2019-05-03T22:46:36.891Z,5.10
2019-05-03T22:48:58.092Z,4.00
2019-05-03T22:51:19.297Z,4.13
2019-05-03T22:53:40.574Z,4.53
2019-05-03T22:56:01.796Z,4.83
2019-05-03T22:58:24.895Z,4.43
2019-05-03T23:00:46.088Z,4.30
2019-05-03T23:03:08.281Z,6.10
2019-05-03T23:05:29.761Z,4.10
2019-05-03T23:07:50.973Z,4.10
2019-05-03T23:10:14.785Z,6.27
2019-05-03T23:12:36.384Z,4.50
2019-05-03T23:14:57.576Z,4.00
2019-05-03T23:17:18.792Z,4.17
2019-05-03T23:19:41.882Z,3.90
2019-05-03T23:22:17.226Z,3.97
2019-05-03T23:24:38.421Z,4.57
2019-05-03T23:26:59.910Z,7.17
2019-05-03T23:29:21.104Z,4.30
2019-05-03T23:31:42.287Z,4.13
2019-05-03T23:34:04.959Z,3.80
2019-05-03T23:36:33.158Z,5.17
2019-05-03T23:38:49.489Z,4.23
2019-05-03T23:41:11.865Z,4.07
2019-05-03T23:43:33.176Z,4.10
2019-05-03T23:45:54.610Z,4.40
2019-05-03T23:48:15.899Z,4.37
2019-05-03T23:50:37.082Z,4.37
2019-05-03T23:52:58.295Z,4.20
2019-05-03T23:55:25.251Z,4.33
2019-05-03T23:57:46.615Z,5.20
